Katoomba, Australia
Current Conditions -  °F | °C
As of 1:13 AM on Saturday 01 Nov 2014 (Local Time) from YSRI Reporting Station
Clear Clear  
Wind Chill: 81°   Ceiling: Unl
Heat Index: 81°   Visibility: 6mi
Dew Point: 54°   Wind: 15mph
Humidity: 39%   Direction: 330°NNW
Pressure: 29.68"   Gusts: NA
Location:  33.71°S, 150.31°E
Report Text: YSRI 311413Z AUTO 33013KT 9999 // NCD 27/12 Q1005
Loading
Personal Weather Stations






























Interactive Weather Map
Tropical Storm Tracking
New forecast layout! Learn more

10-Day Weather Forecast

Advertisements
Track Severe Weather on mobile